createdAt,value
2023-01-01T00:00:29.069Z,1005.15
2023-01-01T00:01:29.039Z,1005.23
2023-01-01T00:02:33.357Z,1005.16
2023-01-01T00:03:30.075Z,1005.28
2023-01-01T00:04:28.999Z,1005.37
2023-01-01T00:05:28.980Z,1005.48
2023-01-01T00:06:28.969Z,1005.26
2023-01-01T00:07:28.970Z,1005.24
2023-01-01T00:08:28.983Z,1005.22
2023-01-01T00:09:28.966Z,1005.38
2023-01-01T00:10:28.924Z,1005.35
2023-01-01T00:11:28.922Z,1005.22
2023-01-01T00:12:28.913Z,1005.23
2023-01-01T00:13:28.908Z,1005.32
2023-01-01T00:14:28.906Z,1005.32
2023-01-01T00:15:28.900Z,1005.37
2023-01-01T00:16:28.921Z,1005.30
2023-01-01T00:17:28.909Z,1005.29
2023-01-01T00:18:28.858Z,1005.37
2023-01-01T00:19:28.873Z,1005.35
2023-01-01T00:20:34.982Z,1005.32
2023-01-01T00:21:29.812Z,1005.39
2023-01-01T00:22:53.289Z,1005.34
2023-01-01T00:23:29.798Z,1005.37
2023-01-01T00:24:28.787Z,1005.45
2023-01-01T00:25:28.774Z,1005.38
2023-01-01T00:26:34.495Z,1005.42
2023-01-01T00:27:29.740Z,1005.38
2023-01-01T00:28:28.775Z,1005.41
2023-01-01T00:29:28.731Z,1005.53
2023-01-01T00:30:28.752Z,1005.49
2023-01-01T00:31:28.921Z,1005.43
2023-01-01T00:32:28.759Z,1005.51
2023-01-01T00:33:28.683Z,1005.45
2023-01-01T00:34:28.704Z,1005.53
2023-01-01T00:35:28.701Z,1005.50
2023-01-01T00:36:28.673Z,1005.44
2023-01-01T00:37:28.643Z,1005.48
2023-01-01T00:38:28.634Z,1005.52
2023-01-01T00:39:28.628Z,1005.59
2023-01-01T00:40:28.626Z,1005.51
2023-01-01T00:41:28.589Z,1005.62
2023-01-01T00:42:28.583Z,1005.45
2023-01-01T00:43:28.564Z,1005.50
2023-01-01T00:44:28.576Z,1005.52
2023-01-01T00:45:28.564Z,1005.55
2023-01-01T00:46:28.891Z,1005.47
2023-01-01T00:47:28.542Z,1005.45
2023-01-01T00:48:28.509Z,1005.49
2023-01-01T00:49:28.505Z,1005.46
2023-01-01T00:50:28.505Z,1005.48
2023-01-01T00:51:33.055Z,1005.56
2023-01-01T00:52:29.463Z,1005.47
2023-01-01T00:53:28.464Z,1005.49
2023-01-01T00:54:28.454Z,1005.51
2023-01-01T00:55:28.435Z,1005.50
2023-01-01T00:56:28.429Z,1005.45
2023-01-01T00:57:28.429Z,1005.57
2023-01-01T00:58:28.414Z,1005.58
2023-01-01T00:59:29.075Z,1005.55
2023-01-01T01:00:28.431Z,1005.59
2023-01-01T01:01:28.504Z,1005.62
2023-01-01T01:02:28.560Z,1005.57
2023-01-01T01:03:28.608Z,1005.70
2023-01-01T01:04:28.356Z,1005.64
2023-01-01T01:05:28.338Z,1005.74
2023-01-01T01:06:28.319Z,1005.63
2023-01-01T01:07:28.313Z,1005.67
2023-01-01T01:08:31.062Z,1005.64
2023-01-01T01:09:28.282Z,1005.62
2023-01-01T01:10:28.276Z,1005.69
2023-01-01T01:11:28.262Z,1005.69
2023-01-01T01:12:28.284Z,1005.69
2023-01-01T01:13:28.240Z,1005.64
2023-01-01T01:14:28.246Z,1005.73
2023-01-01T01:15:28.210Z,1005.71
2023-01-01T01:16:28.287Z,1005.71
2023-01-01T01:17:28.202Z,1005.86
2023-01-01T01:18:28.211Z,1005.95
2023-01-01T01:19:28.201Z,1005.71
2023-01-01T01:20:28.167Z,1005.71
2023-01-01T01:21:28.147Z,1005.69
2023-01-01T01:22:29.222Z,1005.70
2023-01-01T01:23:28.142Z,1005.88
2023-01-01T01:24:28.138Z,1005.78
2023-01-01T01:25:28.113Z,1005.76
2023-01-01T01:26:28.109Z,1005.77
2023-01-01T01:27:28.093Z,1005.75
2023-01-01T01:28:28.071Z,1005.75
2023-01-01T01:29:28.069Z,1005.83
2023-01-01T01:30:28.178Z,1005.78
2023-01-01T01:31:28.041Z,1005.69
2023-01-01T01:32:28.036Z,1005.72
2023-01-01T01:33:28.028Z,1005.75
2023-01-01T01:34:28.575Z,1005.81
2023-01-01T01:35:28.014Z,1005.72
2023-01-01T01:36:28.003Z,1005.78
2023-01-01T01:37:27.976Z,1005.79
2023-01-01T01:38:27.972Z,1005.81
2023-01-01T01:39:27.970Z,1005.73
2023-01-01T01:40:27.944Z,1005.67
2023-01-01T01:41:29.178Z,1005.73
2023-01-01T01:42:27.936Z,1005.81
2023-01-01T01:43:27.910Z,1005.80
2023-01-01T01:44:27.899Z,1005.77
2023-01-01T01:45:33.145Z,1005.76
2023-01-01T01:46:28.940Z,1005.75
2023-01-01T01:47:27.874Z,1005.93
2023-01-01T01:48:27.853Z,1005.73
2023-01-01T01:49:27.842Z,1005.86
2023-01-01T01:50:27.840Z,1005.76
2023-01-01T01:51:27.870Z,1005.80
2023-01-01T01:52:27.811Z,1005.69
2023-01-01T01:53:27.814Z,1005.75
2023-01-01T01:54:27.794Z,1005.77
2023-01-01T01:55:27.784Z,1005.71
2023-01-01T01:56:27.772Z,1005.73
2023-01-01T01:57:27.749Z,1005.73
2023-01-01T01:58:27.761Z,1005.75
2023-01-01T01:59:27.728Z,1005.76
2023-01-01T02:00:27.726Z,1005.69
2023-01-01T02:01:27.796Z,1005.72
2023-01-01T02:02:27.871Z,1005.67
2023-01-01T02:03:27.746Z,1005.76
2023-01-01T02:04:27.682Z,1005.79
2023-01-01T02:05:27.661Z,1005.75
2023-01-01T02:06:27.659Z,1005.97
2023-01-01T02:07:27.678Z,1005.81
2023-01-01T02:08:27.636Z,1005.86
2023-01-01T02:09:27.613Z,1005.76
2023-01-01T02:10:27.630Z,1005.74
2023-01-01T02:11:27.594Z,1005.83
2023-01-01T02:12:27.601Z,1005.79
2023-01-01T02:13:27.574Z,1005.77
2023-01-01T02:14:27.564Z,1005.94
2023-01-01T02:15:27.602Z,1005.83
2023-01-01T02:16:27.620Z,1005.86
2023-01-01T02:17:27.536Z,1006.02
2023-01-01T02:18:27.533Z,1005.89
2023-01-01T02:19:27.535Z,1005.88
2023-01-01T02:20:27.497Z,1005.82
2023-01-01T02:21:27.484Z,1005.80
2023-01-01T02:22:27.481Z,1005.77
2023-01-01T02:23:27.493Z,1005.85
2023-01-01T02:24:27.471Z,1005.83
2023-01-01T02:25:27.450Z,1005.76
2023-01-01T02:26:27.436Z,1005.76
2023-01-01T02:27:28.316Z,1005.79
2023-01-01T02:28:27.432Z,1005.81
2023-01-01T02:29:27.397Z,1005.88
2023-01-01T02:30:27.453Z,1005.72
2023-01-01T02:31:27.461Z,1005.81
2023-01-01T02:32:27.361Z,1005.78
2023-01-01T02:33:27.392Z,1005.77
2023-01-01T02:34:27.348Z,1005.79
2023-01-01T02:35:27.861Z,1005.78
2023-01-01T02:36:27.336Z,1005.66
2023-01-01T02:37:27.321Z,1005.63
2023-01-01T02:38:27.309Z,1005.72
2023-01-01T02:39:27.316Z,1005.84
2023-01-01T02:40:27.287Z,1005.69
2023-01-01T02:41:27.287Z,1005.69
2023-01-01T02:42:27.264Z,1005.69
2023-01-01T02:43:27.280Z,1005.72
2023-01-01T02:44:27.260Z,1005.66
2023-01-01T02:45:27.222Z,1005.71
2023-01-01T02:46:27.223Z,1005.77
2023-01-01T02:47:27.209Z,1005.71
2023-01-01T02:48:27.219Z,1005.65
2023-01-01T02:49:27.179Z,1005.78
2023-01-01T02:50:27.198Z,1005.60
2023-01-01T02:51:27.166Z,1005.65
2023-01-01T02:52:27.149Z,1005.57
2023-01-01T02:53:27.139Z,1005.63
2023-01-01T02:54:27.132Z,1005.81
2023-01-01T02:55:27.141Z,1005.66
2023-01-01T02:56:27.118Z,1005.54
2023-01-01T02:57:27.109Z,1005.64
2023-01-01T02:58:27.098Z,1005.53
2023-01-01T02:59:27.075Z,1005.55
2023-01-01T03:00:27.076Z,1005.58
2023-01-01T03:01:27.149Z,1005.55
2023-01-01T03:02:27.145Z,1005.55
2023-01-01T03:03:27.132Z,1005.53
2023-01-01T03:04:27.032Z,1005.56
2023-01-01T03:05:27.025Z,1005.65
2023-01-01T03:06:27.034Z,1005.51
2023-01-01T03:07:26.987Z,1005.73
2023-01-01T03:08:26.965Z,1005.63
2023-01-01T03:09:26.963Z,1005.58
2023-01-01T03:10:26.987Z,1005.81
2023-01-01T03:11:26.960Z,1005.73
2023-01-01T03:12:26.937Z,1005.77
2023-01-01T03:13:26.920Z,1005.81
2023-01-01T03:14:26.916Z,1005.91
2023-01-01T03:15:26.923Z,1005.89
2023-01-01T03:16:26.897Z,1005.80
2023-01-01T03:17:27.831Z,1005.91
2023-01-01T03:18:26.864Z,1005.81
2023-01-01T03:19:26.846Z,1005.83
2023-01-01T03:20:26.840Z,1005.80
2023-01-01T03:21:26.828Z,1005.92
2023-01-01T03:22:26.833Z,1005.84
2023-01-01T03:23:26.955Z,1005.94
2023-01-01T03:24:26.802Z,1005.87
2023-01-01T03:25:26.792Z,1005.83
2023-01-01T03:26:26.795Z,1005.87
2023-01-01T03:27:26.798Z,1005.86
2023-01-01T03:28:26.759Z,1005.86
2023-01-01T03:29:26.748Z,1005.80
2023-01-01T03:30:26.742Z,1005.84
2023-01-01T03:31:26.863Z,1005.75
2023-01-01T03:32:26.707Z,1005.75
2023-01-01T03:33:26.708Z,1005.76
2023-01-01T03:34:26.697Z,1005.90
2023-01-01T03:35:26.684Z,1005.85
2023-01-01T03:36:26.710Z,1005.87
2023-01-01T03:37:26.652Z,1005.89
2023-01-01T03:38:26.647Z,1005.81
2023-01-01T03:39:26.654Z,1005.82
2023-01-01T03:40:26.625Z,1005.94
2023-01-01T03:41:26.617Z,1005.80
2023-01-01T03:42:26.593Z,1005.66
2023-01-01T03:43:26.610Z,1005.77
2023-01-01T03:44:26.579Z,1005.81
2023-01-01T03:45:26.572Z,1005.91
2023-01-01T03:46:26.637Z,1005.83
2023-01-01T03:47:26.563Z,1005.89
2023-01-01T03:48:26.548Z,1005.89
2023-01-01T03:49:26.520Z,1005.85
2023-01-01T03:50:26.515Z,1005.94
2023-01-01T03:51:26.501Z,1006.08
2023-01-01T03:52:26.517Z,1005.92
2023-01-01T03:53:26.480Z,1005.90
2023-01-01T03:54:26.488Z,1005.94
2023-01-01T03:55:26.450Z,1006.02
2023-01-01T03:56:26.443Z,1006.14
2023-01-01T03:57:26.452Z,1006.10
2023-01-01T03:58:26.431Z,1006.02
2023-01-01T03:59:26.432Z,1006.06
2023-01-01T04:00:26.403Z,1006.14
2023-01-01T04:01:26.566Z,1006.09
2023-01-01T04:02:26.539Z,1006.19
2023-01-01T04:03:26.508Z,1006.15
2023-01-01T04:04:26.363Z,1006.21
2023-01-01T04:05:26.343Z,1006.16
2023-01-01T04:06:26.349Z,1006.29
2023-01-01T04:07:26.328Z,1006.25
2023-01-01T04:08:33.395Z,1006.23
2023-01-01T04:09:26.306Z,1006.23
2023-01-01T04:10:26.301Z,1006.26
2023-01-01T04:11:26.280Z,1006.27
2023-01-01T04:12:26.272Z,1006.36
2023-01-01T04:13:26.279Z,1006.27
2023-01-01T04:14:26.244Z,1006.36
2023-01-01T04:15:26.280Z,1006.35
2023-01-01T04:16:26.272Z,1006.40
2023-01-01T04:17:26.209Z,1006.40
2023-01-01T04:18:26.206Z,1006.44
2023-01-01T04:19:26.197Z,1006.37
2023-01-01T04:20:26.185Z,1006.41
2023-01-01T04:21:26.204Z,1006.44
2023-01-01T04:22:26.164Z,1006.43
2023-01-01T04:23:26.147Z,1006.44
2023-01-01T04:24:26.134Z,1006.64
2023-01-01T04:25:26.170Z,1006.44
2023-01-01T04:26:26.132Z,1006.48
2023-01-01T04:27:26.117Z,1006.37
2023-01-01T04:28:26.107Z,1006.44
2023-01-01T04:29:26.082Z,1006.40
2023-01-01T04:30:26.079Z,1006.53
2023-01-01T04:31:26.119Z,1006.48
2023-01-01T04:32:26.050Z,1006.51
2023-01-01T04:33:26.060Z,1006.44
2023-01-01T04:34:26.028Z,1006.48
2023-01-01T04:35:26.047Z,1006.51
2023-01-01T04:36:26.040Z,1006.43
2023-01-01T04:37:26.023Z,1006.57
2023-01-01T04:38:26.008Z,1006.48
2023-01-01T04:39:25.986Z,1006.42
2023-01-01T04:40:25.966Z,1006.46
2023-01-01T04:41:25.971Z,1006.57
2023-01-01T04:42:25.942Z,1006.50
2023-01-01T04:43:25.933Z,1006.61
2023-01-01T04:44:25.912Z,1006.54
2023-01-01T04:45:26.031Z,1006.49
2023-01-01T04:46:25.918Z,1006.59
2023-01-01T04:47:25.905Z,1006.48
2023-01-01T04:48:25.896Z,1006.54
2023-01-01T04:49:25.865Z,1006.55
2023-01-01T04:50:25.849Z,1006.59
2023-01-01T04:51:25.846Z,1006.65
2023-01-01T04:52:25.824Z,1006.60
2023-01-01T04:53:25.817Z,1006.61
2023-01-01T04:54:25.832Z,1006.63
2023-01-01T04:55:25.801Z,1006.56
2023-01-01T04:56:25.783Z,1006.66
2023-01-01T04:57:25.785Z,1006.81
2023-01-01T04:58:25.767Z,1006.67
2023-01-01T04:59:25.776Z,1006.62
2023-01-01T05:00:25.752Z,1006.71
2023-01-01T05:01:25.885Z,1006.63
2023-01-01T05:02:25.864Z,1006.66
2023-01-01T05:03:25.741Z,1006.56
2023-01-01T05:04:25.703Z,1006.59
2023-01-01T05:05:25.701Z,1006.61
2023-01-01T05:06:25.692Z,1006.60
2023-01-01T05:07:25.661Z,1006.67
2023-01-01T05:08:25.658Z,1006.63
2023-01-01T05:09:25.641Z,1006.59
2023-01-01T05:10:25.641Z,1006.58
2023-01-01T05:11:25.639Z,1006.65
2023-01-01T05:12:25.610Z,1006.68
2023-01-01T05:13:25.596Z,1006.71
2023-01-01T05:14:25.612Z,1006.62
2023-01-01T05:15:25.581Z,1006.63
2023-01-01T05:16:25.689Z,1006.62
2023-01-01T05:17:25.567Z,1006.61
2023-01-01T05:18:25.550Z,1006.68
2023-01-01T05:19:25.561Z,1006.61
2023-01-01T05:20:25.556Z,1006.68
2023-01-01T05:21:25.538Z,1006.69
2023-01-01T05:22:25.530Z,1006.63
2023-01-01T05:23:25.495Z,1006.66
2023-01-01T05:24:25.498Z,1006.68
2023-01-01T05:25:25.482Z,1006.64
2023-01-01T05:26:25.469Z,1006.61
2023-01-01T05:27:25.444Z,1006.73
2023-01-01T05:28:25.450Z,1006.70
2023-01-01T05:29:25.432Z,1006.67
2023-01-01T05:30:25.416Z,1006.76
2023-01-01T05:31:25.520Z,1006.87
2023-01-01T05:32:25.390Z,1006.81
2023-01-01T05:33:25.400Z,1006.87
2023-01-01T05:34:25.390Z,1006.80
2023-01-01T05:35:26.652Z,1006.84
2023-01-01T05:36:25.369Z,1006.83
2023-01-01T05:37:25.331Z,1006.81
2023-01-01T05:38:25.350Z,1006.78
2023-01-01T05:39:25.317Z,1006.75
2023-01-01T05:40:25.311Z,1006.76
2023-01-01T05:41:25.290Z,1006.74
2023-01-01T05:42:25.295Z,1006.70
2023-01-01T05:43:25.271Z,1006.72
2023-01-01T05:44:25.301Z,1006.91
2023-01-01T05:45:25.252Z,1006.78
2023-01-01T05:46:25.237Z,1006.79
2023-01-01T05:47:29.626Z,1006.73
2023-01-01T05:48:25.215Z,1006.77
2023-01-01T05:49:25.220Z,1006.87
2023-01-01T05:50:25.233Z,1006.83
2023-01-01T05:51:25.208Z,1006.82
2023-01-01T05:52:26.911Z,1006.89
2023-01-01T05:53:25.167Z,1006.90
2023-01-01T05:54:25.153Z,1006.94
2023-01-01T05:55:25.145Z,1006.88
2023-01-01T05:56:25.151Z,1006.83
2023-01-01T05:57:25.122Z,1006.86
2023-01-01T05:58:25.116Z,1006.84
2023-01-01T05:59:25.104Z,1006.85
2023-01-01T06:00:25.085Z,1006.82
2023-01-01T06:01:25.151Z,1006.87
2023-01-01T06:02:25.120Z,1006.82
2023-01-01T06:03:25.050Z,1006.86
2023-01-01T06:04:25.096Z,1006.85
2023-01-01T06:05:25.044Z,1006.86
2023-01-01T06:06:25.038Z,1006.83
2023-01-01T06:07:25.026Z,1006.95
2023-01-01T06:08:24.994Z,1006.86
2023-01-01T06:09:24.982Z,1006.76
2023-01-01T06:10:24.980Z,1006.95
2023-01-01T06:11:24.992Z,1006.86
2023-01-01T06:12:24.953Z,1006.79
2023-01-01T06:13:24.941Z,1006.77
2023-01-01T06:14:24.944Z,1006.89
2023-01-01T06:15:24.925Z,1006.81
2023-01-01T06:16:24.998Z,1006.97
2023-01-01T06:17:24.907Z,1006.92
2023-01-01T06:18:24.900Z,1006.89
2023-01-01T06:19:24.882Z,1006.96
2023-01-01T06:20:24.890Z,1006.90
2023-01-01T06:21:24.854Z,1006.82
2023-01-01T06:22:24.847Z,1006.99
2023-01-01T06:23:24.869Z,1006.98
2023-01-01T06:24:24.824Z,1006.99
2023-01-01T06:25:24.810Z,1007.06
2023-01-01T06:26:24.819Z,1007.05
2023-01-01T06:27:24.791Z,1007.00
2023-01-01T06:28:24.779Z,1006.98
2023-01-01T06:29:24.772Z,1006.96
2023-01-01T06:30:24.754Z,1007.00
2023-01-01T06:31:24.771Z,1007.03
2023-01-01T06:32:24.742Z,1006.99
2023-01-01T06:33:24.720Z,1007.15
2023-01-01T06:34:24.712Z,1007.01
2023-01-01T06:35:24.702Z,1007.07
2023-01-01T06:36:24.733Z,1007.09
2023-01-01T06:37:24.697Z,1007.10
2023-01-01T06:38:24.687Z,1007.12
2023-01-01T06:39:24.676Z,1007.01
2023-01-01T06:40:24.647Z,1006.97
2023-01-01T06:41:24.648Z,1007.08
2023-01-01T06:42:28.989Z,1007.04
2023-01-01T06:43:25.644Z,1007.08
2023-01-01T06:44:24.606Z,1007.25
2023-01-01T06:45:24.610Z,1007.07
2023-01-01T06:46:24.629Z,1007.18
2023-01-01T06:47:24.587Z,1007.15
2023-01-01T06:48:24.561Z,1007.20
2023-01-01T06:49:24.546Z,1007.17
2023-01-01T06:50:24.541Z,1007.14
2023-01-01T06:51:24.531Z,1007.14
2023-01-01T06:52:24.528Z,1007.46
2023-01-01T06:53:24.508Z,1007.28
2023-01-01T06:54:24.509Z,1007.12
2023-01-01T06:55:24.515Z,1007.12
2023-01-01T06:56:24.489Z,1007.14
2023-01-01T06:57:24.457Z,1007.09
2023-01-01T06:58:24.452Z,1007.22
2023-01-01T06:59:24.442Z,1007.10
2023-01-01T07:00:24.422Z,1007.16
2023-01-01T07:01:24.599Z,1007.13
2023-01-01T07:02:24.595Z,1007.12
2023-01-01T07:03:24.446Z,1007.25
2023-01-01T07:04:24.379Z,1007.24
2023-01-01T07:05:24.374Z,1007.20
2023-01-01T07:06:24.363Z,1007.27
2023-01-01T07:07:24.359Z,1007.19
2023-01-01T07:08:24.335Z,1007.17
2023-01-01T07:09:24.326Z,1007.26
2023-01-01T07:10:24.322Z,1007.20
2023-01-01T07:11:24.330Z,1007.31
2023-01-01T07:12:24.299Z,1007.28
2023-01-01T07:13:24.303Z,1007.28
2023-01-01T07:14:24.276Z,1007.30
2023-01-01T07:15:24.266Z,1007.40
2023-01-01T07:16:24.424Z,1007.37
2023-01-01T07:17:24.236Z,1007.37
2023-01-01T07:18:24.252Z,1007.42
2023-01-01T07:19:24.227Z,1007.42
2023-01-01T07:20:24.214Z,1007.48
2023-01-01T07:21:28.850Z,1007.51
2023-01-01T07:22:25.186Z,1007.51
2023-01-01T07:23:24.184Z,1007.50
2023-01-01T07:24:24.181Z,1007.57
2023-01-01T07:25:24.158Z,1007.53
2023-01-01T07:26:24.151Z,1007.60
2023-01-01T07:27:24.152Z,1007.53
2023-01-01T07:28:24.126Z,1007.62
2023-01-01T07:29:24.111Z,1007.53
2023-01-01T07:30:24.112Z,1007.53
2023-01-01T07:31:24.154Z,1007.56
2023-01-01T07:32:24.080Z,1007.61
2023-01-01T07:33:24.079Z,1007.62
2023-01-01T07:34:24.056Z,1007.64
2023-01-01T07:35:24.041Z,1007.83
2023-01-01T07:36:24.043Z,1007.62
2023-01-01T07:37:24.029Z,1007.65
2023-01-01T07:38:24.007Z,1007.64
2023-01-01T07:39:23.996Z,1007.56
2023-01-01T07:40:23.997Z,1007.64
2023-01-01T07:41:24.018Z,1007.63
2023-01-01T07:42:23.962Z,1007.72
2023-01-01T07:43:23.973Z,1007.58
2023-01-01T07:44:23.947Z,1007.54
2023-01-01T07:45:23.941Z,1007.67
2023-01-01T07:46:24.031Z,1007.76
2023-01-01T07:47:23.920Z,1007.73
2023-01-01T07:48:23.908Z,1007.70
2023-01-01T07:49:23.891Z,1007.81
2023-01-01T07:50:23.880Z,1007.75
2023-01-01T07:51:23.859Z,1007.79
2023-01-01T07:52:23.880Z,1007.77
2023-01-01T07:53:23.862Z,1007.82
2023-01-01T07:54:23.836Z,1007.85
2023-01-01T07:55:23.823Z,1007.94
2023-01-01T07:56:23.814Z,1008.06
2023-01-01T07:57:23.828Z,1007.91
2023-01-01T07:58:23.797Z,1008.02
2023-01-01T07:59:23.805Z,1007.88
2023-01-01T08:00:23.774Z,1007.85
2023-01-01T08:01:23.846Z,1007.90
2023-01-01T08:02:23.874Z,1007.98
2023-01-01T08:03:23.766Z,1007.91
2023-01-01T08:04:23.735Z,1007.94
2023-01-01T08:05:26.898Z,1007.90
2023-01-01T08:06:23.698Z,1007.91
2023-01-01T08:07:23.699Z,1007.95
2023-01-01T08:08:23.679Z,1008.01
2023-01-01T08:09:23.685Z,1008.02
2023-01-01T08:10:23.686Z,1008.00
2023-01-01T08:11:23.646Z,1008.07
2023-01-01T08:12:23.639Z,1008.17
2023-01-01T08:13:23.641Z,1008.08
2023-01-01T08:14:23.632Z,1008.23
2023-01-01T08:15:23.626Z,1008.08
2023-01-01T08:16:23.647Z,1008.03
2023-01-01T08:17:23.580Z,1008.11
2023-01-01T08:18:23.590Z,1008.09
2023-01-01T08:19:23.562Z,1008.11
2023-01-01T08:20:23.547Z,1008.21
2023-01-01T08:21:23.555Z,1008.05
2023-01-01T08:22:23.523Z,1008.08
2023-01-01T08:23:23.520Z,1007.96
2023-01-01T08:24:23.510Z,1008.07
2023-01-01T08:25:23.505Z,1008.07
2023-01-01T08:26:23.485Z,1008.00
2023-01-01T08:27:23.497Z,1008.11
2023-01-01T08:28:23.484Z,1008.17
2023-01-01T08:29:23.454Z,1008.20
2023-01-01T08:30:23.451Z,1008.08
2023-01-01T08:31:23.460Z,1008.14
2023-01-01T08:32:23.410Z,1008.21
2023-01-01T08:33:23.423Z,1008.20
2023-01-01T08:34:23.415Z,1008.41
2023-01-01T08:35:23.387Z,1008.25
2023-01-01T08:36:23.380Z,1008.29
2023-01-01T08:37:23.374Z,1008.30
2023-01-01T08:38:23.368Z,1008.35
2023-01-01T08:39:23.342Z,1008.30
2023-01-01T08:40:23.322Z,1008.38
2023-01-01T08:41:23.308Z,1008.28
2023-01-01T08:42:23.302Z,1008.38
2023-01-01T08:43:23.315Z,1008.30
2023-01-01T08:44:23.284Z,1008.30
2023-01-01T08:45:23.271Z,1008.39
2023-01-01T08:46:23.309Z,1008.36
2023-01-01T08:47:23.316Z,1008.40
2023-01-01T08:48:30.407Z,1008.41
2023-01-01T08:49:23.233Z,1008.41
2023-01-01T08:50:23.223Z,1008.40
2023-01-01T08:51:23.219Z,1008.42
2023-01-01T08:52:23.205Z,1008.51
2023-01-01T08:53:23.193Z,1008.49
2023-01-01T08:54:23.184Z,1008.51
2023-01-01T08:55:23.182Z,1008.54
2023-01-01T08:56:23.156Z,1008.51
2023-01-01T08:57:23.145Z,1008.54
2023-01-01T08:58:23.135Z,1008.65
2023-01-01T08:59:23.123Z,1008.50
2023-01-01T09:00:23.106Z,1008.50
2023-01-01T09:01:23.273Z,1008.75
2023-01-01T09:02:23.342Z,1008.73
2023-01-01T09:03:23.324Z,1008.52
2023-01-01T09:04:23.097Z,1008.71
2023-01-01T09:05:23.066Z,1008.61
2023-01-01T09:06:23.090Z,1008.79
2023-01-01T09:07:23.074Z,1008.73
2023-01-01T09:08:23.032Z,1008.65
2023-01-01T09:09:29.149Z,1008.65
2023-01-01T09:10:23.997Z,1008.78
2023-01-01T09:11:23.040Z,1008.72
2023-01-01T09:12:22.978Z,1008.85
2023-01-01T09:13:22.984Z,1008.80
2023-01-01T09:14:22.957Z,1008.78
2023-01-01T09:15:22.949Z,1009.05
2023-01-01T09:16:23.036Z,1008.91
2023-01-01T09:17:22.944Z,1008.97
2023-01-01T09:18:22.910Z,1008.83
2023-01-01T09:19:22.932Z,1008.83
2023-01-01T09:20:22.889Z,1009.03
2023-01-01T09:21:22.901Z,1008.98
2023-01-01T09:22:22.900Z,1009.02
2023-01-01T09:23:22.852Z,1009.09
2023-01-01T09:24:22.857Z,1009.10
2023-01-01T09:25:22.836Z,1009.10
2023-01-01T09:26:22.827Z,1009.13
2023-01-01T09:27:22.821Z,1009.11
2023-01-01T09:28:25.909Z,1009.18
2023-01-01T09:29:22.790Z,1009.06
2023-01-01T09:30:22.780Z,1009.07
2023-01-01T09:31:22.799Z,1009.07
2023-01-01T09:32:22.759Z,1009.16
2023-01-01T09:33:22.769Z,1009.18
2023-01-01T09:34:22.747Z,1009.20
2023-01-01T09:35:22.752Z,1009.06
2023-01-01T09:36:22.713Z,1009.07
2023-01-01T09:37:22.704Z,1009.08
2023-01-01T09:38:22.698Z,1009.18
2023-01-01T09:39:22.712Z,1009.28
2023-01-01T09:40:22.667Z,1009.13
2023-01-01T09:41:22.665Z,1009.09
2023-01-01T09:42:22.665Z,1009.23
2023-01-01T09:43:22.645Z,1009.21
2023-01-01T09:44:22.650Z,1009.23
2023-01-01T09:45:22.640Z,1009.17
2023-01-01T09:46:27.943Z,1009.20
2023-01-01T09:47:23.595Z,1009.31
2023-01-01T09:48:22.604Z,1009.07
2023-01-01T09:49:22.594Z,1008.99
2023-01-01T09:50:22.604Z,1009.07
2023-01-01T09:51:22.633Z,1009.11
2023-01-01T09:52:22.573Z,1009.25
2023-01-01T09:53:22.581Z,1009.13
2023-01-01T09:54:22.522Z,1009.23
2023-01-01T09:55:22.517Z,1009.14
2023-01-01T09:56:22.503Z,1009.14
2023-01-01T09:57:22.498Z,1009.18
2023-01-01T09:58:22.475Z,1009.15
2023-01-01T09:59:22.477Z,1009.19
2023-01-01T10:00:22.455Z,1009.28
2023-01-01T10:01:22.529Z,1009.20
2023-01-01T10:02:22.452Z,1009.20
2023-01-01T10:03:22.436Z,1009.25
2023-01-01T10:04:22.442Z,1009.27
2023-01-01T10:05:22.414Z,1009.27
2023-01-01T10:06:22.384Z,1009.18
2023-01-01T10:07:22.401Z,1009.23
2023-01-01T10:08:23.648Z,1009.32
2023-01-01T10:09:22.356Z,1009.26
2023-01-01T10:10:22.361Z,1009.17
2023-01-01T10:11:22.405Z,1009.22
2023-01-01T10:12:22.326Z,1009.17
2023-01-01T10:13:22.338Z,1009.24
2023-01-01T10:14:22.317Z,1009.40
2023-01-01T10:15:22.298Z,1009.35
2023-01-01T10:16:25.102Z,1009.40
2023-01-01T10:17:22.271Z,1009.44
2023-01-01T10:18:22.264Z,1009.27
2023-01-01T10:19:22.268Z,1009.32
2023-01-01T10:20:22.245Z,1009.31
2023-01-01T10:21:22.250Z,1009.30
2023-01-01T10:22:22.216Z,1009.28
2023-01-01T10:23:22.794Z,1009.25
2023-01-01T10:24:22.206Z,1009.34
2023-01-01T10:25:22.193Z,1009.24
2023-01-01T10:26:22.187Z,1009.29
2023-01-01T10:27:22.175Z,1009.33
2023-01-01T10:28:22.152Z,1009.42
2023-01-01T10:29:22.147Z,1009.39
2023-01-01T10:30:22.158Z,1009.39
2023-01-01T10:31:22.213Z,1009.41
2023-01-01T10:32:22.109Z,1009.50
2023-01-01T10:33:22.091Z,1009.43
2023-01-01T10:34:22.096Z,1009.50
2023-01-01T10:35:28.381Z,1009.57
2023-01-01T10:36:23.095Z,1009.45
2023-01-01T10:37:22.062Z,1009.43
2023-01-01T10:38:22.043Z,1009.37
2023-01-01T10:39:22.136Z,1009.62
2023-01-01T10:40:22.076Z,1009.68
2023-01-01T10:41:22.024Z,1009.63
2023-01-01T10:42:22.004Z,1009.65
2023-01-01T10:43:21.991Z,1009.55
2023-01-01T10:44:21.985Z,1009.53
2023-01-01T10:45:21.972Z,1009.53
2023-01-01T10:46:27.539Z,1009.52
2023-01-01T10:47:22.946Z,1009.52
2023-01-01T10:48:21.943Z,1009.63
2023-01-01T10:49:21.940Z,1009.62
2023-01-01T10:50:21.956Z,1009.51
2023-01-01T10:51:21.912Z,1009.59
2023-01-01T10:52:21.918Z,1009.49
2023-01-01T10:53:21.888Z,1009.51
2023-01-01T10:54:25.248Z,1009.47
2023-01-01T10:55:22.872Z,1009.49
2023-01-01T10:56:21.854Z,1009.54
2023-01-01T10:57:21.853Z,1009.49
2023-01-01T10:58:21.824Z,1009.46
2023-01-01T10:59:21.831Z,1009.39
2023-01-01T11:00:21.847Z,1009.39
2023-01-01T11:01:21.894Z,1009.42
2023-01-01T11:02:22.068Z,1009.48
2023-01-01T11:03:21.984Z,1009.40
2023-01-01T11:04:21.758Z,1009.47
2023-01-01T11:05:22.659Z,1009.44
2023-01-01T11:06:21.745Z,1009.61
2023-01-01T11:07:21.736Z,1009.68
2023-01-01T11:08:21.751Z,1009.61
2023-01-01T11:09:21.712Z,1009.71
2023-01-01T11:10:21.691Z,1009.68
2023-01-01T11:11:21.709Z,1009.66
2023-01-01T11:12:54.690Z,1009.67
2023-01-01T11:13:22.684Z,1009.70
2023-01-01T11:14:21.651Z,1009.67
2023-01-01T11:15:21.661Z,1009.85
2023-01-01T11:16:21.675Z,1009.81
2023-01-01T11:17:21.634Z,1009.80
2023-01-01T11:18:21.614Z,1009.85
2023-01-01T11:19:21.619Z,1009.84
2023-01-01T11:20:21.592Z,1009.85
2023-01-01T11:21:21.583Z,1009.79
2023-01-01T11:22:21.569Z,1009.87
2023-01-01T11:23:21.556Z,1009.88
2023-01-01T11:24:21.585Z,1009.99
2023-01-01T11:25:21.544Z,1010.06
2023-01-01T11:26:21.566Z,1010.04
2023-01-01T11:27:21.531Z,1009.97
2023-01-01T11:28:21.510Z,1009.98
2023-01-01T11:29:21.504Z,1010.37
2023-01-01T11:30:21.498Z,1009.92
2023-01-01T11:31:21.535Z,1009.89
2023-01-01T11:32:21.474Z,1009.78
2023-01-01T11:33:21.450Z,1009.86
2023-01-01T11:34:21.465Z,1009.80
2023-01-01T11:35:21.456Z,1009.76
2023-01-01T11:36:21.427Z,1009.83
2023-01-01T11:37:21.427Z,1009.89
2023-01-01T11:38:27.550Z,1010.00
2023-01-01T11:39:22.381Z,1009.87
2023-01-01T11:40:21.377Z,1009.91
2023-01-01T11:41:21.360Z,1009.85
2023-01-01T11:42:21.349Z,1009.80
2023-01-01T11:43:21.373Z,1009.76
2023-01-01T11:44:21.336Z,1009.81
2023-01-01T11:45:21.321Z,1009.71
2023-01-01T11:46:21.350Z,1009.79
2023-01-01T11:47:21.307Z,1009.79
2023-01-01T11:48:21.297Z,1009.82
2023-01-01T11:49:21.284Z,1009.73
2023-01-01T11:50:21.268Z,1009.75
2023-01-01T11:51:21.253Z,1009.76
2023-01-01T11:52:21.272Z,1009.80
2023-01-01T11:53:21.235Z,1009.87
2023-01-01T11:54:21.226Z,1009.89
2023-01-01T11:55:21.230Z,1009.98
2023-01-01T11:56:21.204Z,1009.97
2023-01-01T11:57:21.196Z,1010.08
2023-01-01T11:58:21.204Z,1010.03
2023-01-01T11:59:21.290Z,1009.96
2023-01-01T12:00:21.163Z,1009.86
2023-01-01T12:01:21.268Z,1009.91
2023-01-01T12:02:21.199Z,1009.95
2023-01-01T12:03:21.177Z,1009.99
2023-01-01T12:04:21.197Z,1010.00
2023-01-01T12:05:21.117Z,1010.02